sensor_id;sensor_type;location;lat;lon;timestamp;P1;durP1;ratioP1;P2;durP2;ratioP2
74059;SDS011;62414;53.436;8.828;2022-12-17T00:00:24;75.10;;;29.38;;
74059;SDS011;62414;53.436;8.828;2022-12-17T00:02:50;75.97;;;28.75;;
74059;SDS011;62414;53.436;8.828;2022-12-17T00:05:22;72.27;;;27.00;;
74059;SDS011;62414;53.436;8.828;2022-12-17T00:07:52;74.65;;;27.48;;
74059;SDS011;62414;53.436;8.828;2022-12-17T00:10:20;102.30;;;30.58;;
74059;SDS011;62414;53.436;8.828;2022-12-17T00:12:46;82.57;;;30.07;;
74059;SDS011;62414;53.436;8.828;2022-12-17T00:15:11;80.80;;;28.73;;
74059;SDS011;62414;53.436;8.828;2022-12-17T00:17:37;75.53;;;28.07;;
74059;SDS011;62414;53.436;8.828;2022-12-17T00:20:02;78.40;;;27.97;;
74059;SDS011;62414;53.436;8.828;2022-12-17T00:22:30;80.47;;;28.65;;
74059;SDS011;62414;53.436;8.828;2022-12-17T00:24:55;78.68;;;29.20;;
74059;SDS011;62414;53.436;8.828;2022-12-17T00:27:21;80.93;;;29.87;;
74059;SDS011;62414;53.436;8.828;2022-12-17T00:29:46;84.63;;;28.85;;
74059;SDS011;62414;53.436;8.828;2022-12-17T00:32:11;85.83;;;30.77;;
74059;SDS011;62414;53.436;8.828;2022-12-17T00:34:37;85.93;;;31.27;;
74059;SDS011;62414;53.436;8.828;2022-12-17T00:37:02;84.60;;;30.17;;
74059;SDS011;62414;53.436;8.828;2022-12-17T00:39:29;85.80;;;29.73;;
74059;SDS011;62414;53.436;8.828;2022-12-17T00:41:55;82.03;;;30.88;;
74059;SDS011;62414;53.436;8.828;2022-12-17T00:44:20;84.83;;;30.20;;
74059;SDS011;62414;53.436;8.828;2022-12-17T00:46:46;75.67;;;28.47;;
74059;SDS011;62414;53.436;8.828;2022-12-17T00:49:11;76.72;;;28.13;;
74059;SDS011;62414;53.436;8.828;2022-12-17T00:51:37;74.77;;;27.60;;
74059;SDS011;62414;53.436;8.828;2022-12-17T00:54:02;82.90;;;29.33;;
74059;SDS011;62414;53.436;8.828;2022-12-17T00:56:29;77.75;;;28.73;;
74059;SDS011;62414;53.436;8.828;2022-12-17T00:58:54;82.90;;;28.02;;
74059;SDS011;62414;53.436;8.828;2022-12-17T01:01:20;77.90;;;28.83;;
74059;SDS011;62414;53.436;8.828;2022-12-17T01:03:45;382.03;;;45.17;;
74059;SDS011;62414;53.436;8.828;2022-12-17T01:06:11;122.13;;;32.37;;
74059;SDS011;62414;53.436;8.828;2022-12-17T01:08:37;82.83;;;29.40;;
74059;SDS011;62414;53.436;8.828;2022-12-17T01:11:03;75.70;;;29.52;;
74059;SDS011;62414;53.436;8.828;2022-12-17T01:13:31;87.17;;;30.00;;
74059;SDS011;62414;53.436;8.828;2022-12-17T01:16:00;84.25;;;30.40;;
74059;SDS011;62414;53.436;8.828;2022-12-17T01:18:26;78.22;;;29.17;;
74059;SDS011;62414;53.436;8.828;2022-12-17T01:20:54;78.23;;;29.23;;
74059;SDS011;62414;53.436;8.828;2022-12-17T01:23:20;82.60;;;30.55;;
74059;SDS011;62414;53.436;8.828;2022-12-17T01:25:50;88.00;;;30.37;;
74059;SDS011;62414;53.436;8.828;2022-12-17T01:28:20;77.00;;;29.48;;
74059;SDS011;62414;53.436;8.828;2022-12-17T01:30:48;78.30;;;28.70;;
74059;SDS011;62414;53.436;8.828;2022-12-17T01:33:13;78.30;;;29.45;;
74059;SDS011;62414;53.436;8.828;2022-12-17T01:35:39;73.17;;;28.10;;
74059;SDS011;62414;53.436;8.828;2022-12-17T01:38:08;76.70;;;29.17;;
74059;SDS011;62414;53.436;8.828;2022-12-17T01:40:35;72.47;;;27.02;;
74059;SDS011;62414;53.436;8.828;2022-12-17T01:43:01;79.18;;;29.40;;
74059;SDS011;62414;53.436;8.828;2022-12-17T01:45:26;83.07;;;29.90;;
74059;SDS011;62414;53.436;8.828;2022-12-17T01:47:58;81.88;;;30.15;;
74059;SDS011;62414;53.436;8.828;2022-12-17T01:50:27;85.90;;;30.37;;
74059;SDS011;62414;53.436;8.828;2022-12-17T01:52:58;88.65;;;30.83;;
74059;SDS011;62414;53.436;8.828;2022-12-17T01:55:26;87.63;;;30.65;;
74059;SDS011;62414;53.436;8.828;2022-12-17T01:57:52;81.83;;;31.63;;
74059;SDS011;62414;53.436;8.828;2022-12-17T02:00:18;497.50;;;52.20;;
74059;SDS011;62414;53.436;8.828;2022-12-17T02:02:43;105.07;;;33.25;;
74059;SDS011;62414;53.436;8.828;2022-12-17T02:05:10;83.90;;;32.53;;
74059;SDS011;62414;53.436;8.828;2022-12-17T02:07:40;93.50;;;33.72;;
74059;SDS011;62414;53.436;8.828;2022-12-17T02:10:15;87.85;;;31.52;;
74059;SDS011;62414;53.436;8.828;2022-12-17T02:12:47;87.82;;;31.38;;
74059;SDS011;62414;53.436;8.828;2022-12-17T02:15:17;78.73;;;30.20;;
74059;SDS011;62414;53.436;8.828;2022-12-17T02:17:48;84.65;;;31.05;;
74059;SDS011;62414;53.436;8.828;2022-12-17T02:20:20;84.13;;;30.48;;
74059;SDS011;62414;53.436;8.828;2022-12-17T02:22:52;75.47;;;29.13;;
74059;SDS011;62414;53.436;8.828;2022-12-17T02:25:29;79.82;;;29.98;;
74059;SDS011;62414;53.436;8.828;2022-12-17T02:28:03;84.77;;;31.90;;
74059;SDS011;62414;53.436;8.828;2022-12-17T02:30:28;80.25;;;29.60;;
74059;SDS011;62414;53.436;8.828;2022-12-17T02:32:56;75.35;;;29.63;;
74059;SDS011;62414;53.436;8.828;2022-12-17T02:35:27;77.82;;;28.92;;
74059;SDS011;62414;53.436;8.828;2022-12-17T02:37:55;80.25;;;30.40;;
74059;SDS011;62414;53.436;8.828;2022-12-17T02:40:20;80.17;;;29.37;;
74059;SDS011;62414;53.436;8.828;2022-12-17T02:42:48;76.03;;;29.38;;
74059;SDS011;62414;53.436;8.828;2022-12-17T02:45:15;81.47;;;29.53;;
74059;SDS011;62414;53.436;8.828;2022-12-17T02:47:41;75.70;;;28.10;;
74059;SDS011;62414;53.436;8.828;2022-12-17T02:50:08;69.80;;;27.35;;
74059;SDS011;62414;53.436;8.828;2022-12-17T02:52:38;75.97;;;28.17;;
74059;SDS011;62414;53.436;8.828;2022-12-17T02:55:06;71.88;;;28.52;;
74059;SDS011;62414;53.436;8.828;2022-12-17T02:57:32;73.47;;;27.57;;
74059;SDS011;62414;53.436;8.828;2022-12-17T02:59:57;76.25;;;28.58;;
74059;SDS011;62414;53.436;8.828;2022-12-17T03:02:24;75.87;;;26.73;;
74059;SDS011;62414;53.436;8.828;2022-12-17T03:04:51;71.00;;;25.50;;
74059;SDS011;62414;53.436;8.828;2022-12-17T03:07:16;75.93;;;27.57;;
74059;SDS011;62414;53.436;8.828;2022-12-17T03:09:42;69.67;;;27.10;;
74059;SDS011;62414;53.436;8.828;2022-12-17T03:12:07;66.35;;;24.50;;
74059;SDS011;62414;53.436;8.828;2022-12-17T03:14:33;61.93;;;24.53;;
74059;SDS011;62414;53.436;8.828;2022-12-17T03:16:58;64.80;;;25.37;;
74059;SDS011;62414;53.436;8.828;2022-12-17T03:19:25;65.85;;;26.05;;
74059;SDS011;62414;53.436;8.828;2022-12-17T03:21:51;71.05;;;27.85;;
74059;SDS011;62414;53.436;8.828;2022-12-17T03:24:16;82.87;;;28.43;;
74059;SDS011;62414;53.436;8.828;2022-12-17T03:26:42;96.00;;;33.83;;
74059;SDS011;62414;53.436;8.828;2022-12-17T03:29:07;118.32;;;38.88;;
74059;SDS011;62414;53.436;8.828;2022-12-17T03:31:33;123.47;;;40.87;;
74059;SDS011;62414;53.436;8.828;2022-12-17T03:33:58;128.53;;;39.87;;
74059;SDS011;62414;53.436;8.828;2022-12-17T03:36:25;128.68;;;40.40;;
74059;SDS011;62414;53.436;8.828;2022-12-17T03:38:51;150.33;;;42.77;;
74059;SDS011;62414;53.436;8.828;2022-12-17T03:41:16;151.98;;;43.83;;
74059;SDS011;62414;53.436;8.828;2022-12-17T03:43:42;143.90;;;41.70;;
74059;SDS011;62414;53.436;8.828;2022-12-17T03:46:07;146.10;;;41.27;;
74059;SDS011;62414;53.436;8.828;2022-12-17T03:48:33;306.13;;;49.77;;
74059;SDS011;62414;53.436;8.828;2022-12-17T03:50:58;200.40;;;44.97;;
74059;SDS011;62414;53.436;8.828;2022-12-17T03:53:25;204.68;;;46.60;;
74059;SDS011;62414;53.436;8.828;2022-12-17T03:55:51;225.20;;;50.22;;
74059;SDS011;62414;53.436;8.828;2022-12-17T03:58:16;228.50;;;50.10;;
74059;SDS011;62414;53.436;8.828;2022-12-17T04:00:42;228.70;;;50.47;;
74059;SDS011;62414;53.436;8.828;2022-12-17T04:03:07;229.02;;;50.35;;
74059;SDS011;62414;53.436;8.828;2022-12-17T04:05:33;225.57;;;51.33;;
74059;SDS011;62414;53.436;8.828;2022-12-17T04:07:58;217.53;;;49.87;;
74059;SDS011;62414;53.436;8.828;2022-12-17T04:10:25;196.17;;;48.27;;
74059;SDS011;62414;53.436;8.828;2022-12-17T04:12:50;219.85;;;47.80;;
74059;SDS011;62414;53.436;8.828;2022-12-17T04:15:16;168.17;;;46.43;;
74059;SDS011;62414;53.436;8.828;2022-12-17T04:17:41;176.13;;;46.57;;
74059;SDS011;62414;53.436;8.828;2022-12-17T04:20:07;167.00;;;43.30;;
74059;SDS011;62414;53.436;8.828;2022-12-17T04:22:33;165.95;;;44.10;;
74059;SDS011;62414;53.436;8.828;2022-12-17T04:24:58;162.40;;;44.63;;
74059;SDS011;62414;53.436;8.828;2022-12-17T04:27:25;155.95;;;43.70;;
74059;SDS011;62414;53.436;8.828;2022-12-17T04:29:50;158.43;;;43.50;;
74059;SDS011;62414;53.436;8.828;2022-12-17T04:32:16;648.85;;;78.60;;
74059;SDS011;62414;53.436;8.828;2022-12-17T04:34:41;166.63;;;46.37;;
74059;SDS011;62414;53.436;8.828;2022-12-17T04:37:07;164.07;;;44.07;;
74059;SDS011;62414;53.436;8.828;2022-12-17T04:39:32;143.55;;;43.20;;
74059;SDS011;62414;53.436;8.828;2022-12-17T04:41:58;166.63;;;43.80;;
74059;SDS011;62414;53.436;8.828;2022-12-17T04:44:24;138.37;;;41.93;;
74059;SDS011;62414;53.436;8.828;2022-12-17T04:46:50;150.25;;;44.42;;
74059;SDS011;62414;53.436;8.828;2022-12-17T04:49:15;141.50;;;42.17;;
74059;SDS011;62414;53.436;8.828;2022-12-17T04:51:41;175.38;;;46.05;;
74059;SDS011;62414;53.436;8.828;2022-12-17T04:54:06;159.57;;;41.50;;
74059;SDS011;62414;53.436;8.828;2022-12-17T04:56:32;160.20;;;43.37;;
74059;SDS011;62414;53.436;8.828;2022-12-17T04:58:57;153.97;;;41.87;;
74059;SDS011;62414;53.436;8.828;2022-12-17T05:01:24;144.07;;;43.20;;
74059;SDS011;62414;53.436;8.828;2022-12-17T05:03:49;132.48;;;40.35;;
74059;SDS011;62414;53.436;8.828;2022-12-17T05:06:15;143.50;;;41.30;;
74059;SDS011;62414;53.436;8.828;2022-12-17T05:08:40;152.77;;;41.87;;
74059;SDS011;62414;53.436;8.828;2022-12-17T05:11:06;133.70;;;40.43;;
74059;SDS011;62414;53.436;8.828;2022-12-17T05:13:31;199.40;;;43.47;;
74059;SDS011;62414;53.436;8.828;2022-12-17T05:15:56;164.07;;;42.70;;
74059;SDS011;62414;53.436;8.828;2022-12-17T05:18:23;140.30;;;41.20;;
74059;SDS011;62414;53.436;8.828;2022-12-17T05:20:49;128.82;;;40.55;;
74059;SDS011;62414;53.436;8.828;2022-12-17T05:23:14;136.87;;;39.80;;
74059;SDS011;62414;53.436;8.828;2022-12-17T05:25:39;132.90;;;39.58;;
74059;SDS011;62414;53.436;8.828;2022-12-17T05:28:05;132.13;;;39.77;;
74059;SDS011;62414;53.436;8.828;2022-12-17T05:30:30;131.63;;;38.50;;
74059;SDS011;62414;53.436;8.828;2022-12-17T05:32:57;130.18;;;38.72;;
74059;SDS011;62414;53.436;8.828;2022-12-17T05:35:24;124.57;;;38.10;;
74059;SDS011;62414;53.436;8.828;2022-12-17T05:37:50;124.88;;;36.80;;
74059;SDS011;62414;53.436;8.828;2022-12-17T05:40:15;129.73;;;39.70;;
74059;SDS011;62414;53.436;8.828;2022-12-17T05:42:41;123.73;;;38.77;;
74059;SDS011;62414;53.436;8.828;2022-12-17T05:45:07;139.63;;;40.57;;
74059;SDS011;62414;53.436;8.828;2022-12-17T05:47:32;137.02;;;39.15;;
74059;SDS011;62414;53.436;8.828;2022-12-17T05:49:58;129.93;;;38.33;;
74059;SDS011;62414;53.436;8.828;2022-12-17T05:52:25;123.53;;;39.08;;
74059;SDS011;62414;53.436;8.828;2022-12-17T05:54:50;127.13;;;36.43;;
74059;SDS011;62414;53.436;8.828;2022-12-17T05:57:16;119.63;;;35.17;;
74059;SDS011;62414;53.436;8.828;2022-12-17T05:59:41;115.13;;;35.50;;
74059;SDS011;62414;53.436;8.828;2022-12-17T06:02:06;124.57;;;35.97;;
74059;SDS011;62414;53.436;8.828;2022-12-17T06:04:32;113.73;;;35.60;;
74059;SDS011;62414;53.436;8.828;2022-12-17T06:06:57;99.03;;;33.90;;
74059;SDS011;62414;53.436;8.828;2022-12-17T06:09:25;99.50;;;32.43;;
74059;SDS011;62414;53.436;8.828;2022-12-17T06:11:50;113.82;;;34.38;;
74059;SDS011;62414;53.436;8.828;2022-12-17T06:14:15;102.60;;;34.30;;
74059;SDS011;62414;53.436;8.828;2022-12-17T06:16:41;111.78;;;34.95;;
74059;SDS011;62414;53.436;8.828;2022-12-17T06:19:06;120.63;;;35.47;;
74059;SDS011;62414;53.436;8.828;2022-12-17T06:21:32;113.97;;;34.10;;
74059;SDS011;62414;53.436;8.828;2022-12-17T06:23:57;114.07;;;34.85;;
74059;SDS011;62414;53.436;8.828;2022-12-17T06:26:24;103.47;;;32.87;;
74059;SDS011;62414;53.436;8.828;2022-12-17T06:28:50;105.18;;;31.88;;
74059;SDS011;62414;53.436;8.828;2022-12-17T06:31:15;107.57;;;33.70;;
74059;SDS011;62414;53.436;8.828;2022-12-17T06:33:41;104.60;;;32.92;;
74059;SDS011;62414;53.436;8.828;2022-12-17T06:36:06;114.80;;;35.10;;
74059;SDS011;62414;53.436;8.828;2022-12-17T06:38:32;108.37;;;36.57;;
74059;SDS011;62414;53.436;8.828;2022-12-17T06:40:58;96.82;;;32.63;;
74059;SDS011;62414;53.436;8.828;2022-12-17T06:43:26;84.60;;;27.57;;
74059;SDS011;62414;53.436;8.828;2022-12-17T06:45:51;96.25;;;30.05;;
74059;SDS011;62414;53.436;8.828;2022-12-17T06:48:17;88.28;;;29.02;;
74059;SDS011;62414;53.436;8.828;2022-12-17T06:50:42;94.37;;;29.10;;
74059;SDS011;62414;53.436;8.828;2022-12-17T06:53:08;91.13;;;30.50;;
74059;SDS011;62414;53.436;8.828;2022-12-17T06:55:34;96.65;;;29.50;;
74059;SDS011;62414;53.436;8.828;2022-12-17T06:58:00;90.17;;;28.80;;
74059;SDS011;62414;53.436;8.828;2022-12-17T07:00:27;89.95;;;28.30;;
74059;SDS011;62414;53.436;8.828;2022-12-17T07:02:53;212.50;;;35.00;;
74059;SDS011;62414;53.436;8.828;2022-12-17T07:05:19;95.45;;;29.00;;
74059;SDS011;62414;53.436;8.828;2022-12-17T07:07:45;97.23;;;30.07;;
74059;SDS011;62414;53.436;8.828;2022-12-17T07:10:10;100.97;;;29.80;;
74059;SDS011;62414;53.436;8.828;2022-12-17T07:12:35;94.17;;;29.03;;
74059;SDS011;62414;53.436;8.828;2022-12-17T07:15:01;93.17;;;28.93;;
74059;SDS011;62414;53.436;8.828;2022-12-17T07:17:28;88.97;;;27.80;;
74059;SDS011;62414;53.436;8.828;2022-12-17T07:19:53;97.55;;;28.88;;
74059;SDS011;62414;53.436;8.828;2022-12-17T07:22:19;96.57;;;29.37;;
74059;SDS011;62414;53.436;8.828;2022-12-17T07:24:44;90.13;;;28.23;;
74059;SDS011;62414;53.436;8.828;2022-12-17T07:27:09;89.53;;;27.43;;
74059;SDS011;62414;53.436;8.828;2022-12-17T07:29:35;94.77;;;29.37;;
74059;SDS011;62414;53.436;8.828;2022-12-17T07:32:00;96.73;;;29.60;;
74059;SDS011;62414;53.436;8.828;2022-12-17T07:34:28;90.27;;;27.87;;
74059;SDS011;62414;53.436;8.828;2022-12-17T07:36:53;94.53;;;29.48;;
74059;SDS011;62414;53.436;8.828;2022-12-17T07:39:19;85.83;;;27.60;;
74059;SDS011;62414;53.436;8.828;2022-12-17T07:41:44;93.57;;;28.27;;
74059;SDS011;62414;53.436;8.828;2022-12-17T07:44:09;89.97;;;28.20;;
74059;SDS011;62414;53.436;8.828;2022-12-17T07:46:35;92.60;;;29.20;;
74059;SDS011;62414;53.436;8.828;2022-12-17T07:49:00;94.57;;;29.77;;
74059;SDS011;62414;53.436;8.828;2022-12-17T07:51:27;87.93;;;27.10;;
74059;SDS011;62414;53.436;8.828;2022-12-17T07:53:53;101.07;;;27.42;;
74059;SDS011;62414;53.436;8.828;2022-12-17T07:56:18;93.73;;;28.87;;
74059;SDS011;62414;53.436;8.828;2022-12-17T07:58:44;87.30;;;28.43;;
74059;SDS011;62414;53.436;8.828;2022-12-17T08:01:09;83.68;;;27.25;;
74059;SDS011;62414;53.436;8.828;2022-12-17T08:03:35;91.30;;;28.37;;
74059;SDS011;62414;53.436;8.828;2022-12-17T08:06:00;79.60;;;26.07;;
74059;SDS011;62414;53.436;8.828;2022-12-17T08:08:27;88.93;;;27.65;;
74059;SDS011;62414;53.436;8.828;2022-12-17T08:10:52;90.10;;;26.53;;
74059;SDS011;62414;53.436;8.828;2022-12-17T08:13:18;83.32;;;26.55;;
74059;SDS011;62414;53.436;8.828;2022-12-17T08:15:43;89.73;;;28.20;;
74059;SDS011;62414;53.436;8.828;2022-12-17T08:18:10;92.63;;;27.95;;
74059;SDS011;62414;53.436;8.828;2022-12-17T08:20:35;86.67;;;27.17;;
74059;SDS011;62414;53.436;8.828;2022-12-17T08:23:01;84.60;;;27.40;;
74059;SDS011;62414;53.436;8.828;2022-12-17T08:25:28;90.03;;;27.90;;
74059;SDS011;62414;53.436;8.828;2022-12-17T08:27:56;85.93;;;26.98;;
74059;SDS011;62414;53.436;8.828;2022-12-17T08:30:22;80.18;;;26.58;;
74059;SDS011;62414;53.436;8.828;2022-12-17T08:32:48;82.97;;;24.73;;
74059;SDS011;62414;53.436;8.828;2022-12-17T08:35:13;78.77;;;23.43;;
74059;SDS011;62414;53.436;8.828;2022-12-17T08:37:39;73.00;;;22.35;;
74059;SDS011;62414;53.436;8.828;2022-12-17T08:40:05;89.67;;;26.53;;
74059;SDS011;62414;53.436;8.828;2022-12-17T08:42:32;166.60;;;28.70;;
74059;SDS011;62414;53.436;8.828;2022-12-17T08:44:58;108.63;;;27.90;;
74059;SDS011;62414;53.436;8.828;2022-12-17T08:47:23;76.23;;;23.13;;
74059;SDS011;62414;53.436;8.828;2022-12-17T08:49:48;74.70;;;23.57;;
74059;SDS011;62414;53.436;8.828;2022-12-17T08:52:14;76.87;;;24.67;;
74059;SDS011;62414;53.436;8.828;2022-12-17T08:54:39;79.55;;;25.00;;
74059;SDS011;62414;53.436;8.828;2022-12-17T08:57:05;77.13;;;23.87;;
74059;SDS011;62414;53.436;8.828;2022-12-17T08:59:31;83.60;;;25.17;;
74059;SDS011;62414;53.436;8.828;2022-12-17T09:01:57;93.38;;;26.98;;
74059;SDS011;62414;53.436;8.828;2022-12-17T09:04:22;94.77;;;26.53;;
74059;SDS011;62414;53.436;8.828;2022-12-17T09:06:48;108.57;;;28.42;;
74059;SDS011;62414;53.436;8.828;2022-12-17T09:09:13;112.17;;;28.10;;
74059;SDS011;62414;53.436;8.828;2022-12-17T09:11:39;111.33;;;27.67;;
74059;SDS011;62414;53.436;8.828;2022-12-17T09:14:05;116.70;;;30.08;;
74059;SDS011;62414;53.436;8.828;2022-12-17T09:16:31;109.17;;;28.30;;
74059;SDS011;62414;53.436;8.828;2022-12-17T09:18:57;106.25;;;26.90;;
74059;SDS011;62414;53.436;8.828;2022-12-17T09:21:22;129.13;;;30.87;;
74059;SDS011;62414;53.436;8.828;2022-12-17T09:23:48;117.78;;;28.25;;
74059;SDS011;62414;53.436;8.828;2022-12-17T09:26:13;113.93;;;28.17;;
74059;SDS011;62414;53.436;8.828;2022-12-17T09:28:39;129.50;;;30.73;;
74059;SDS011;62414;53.436;8.828;2022-12-17T09:31:04;113.13;;;29.40;;
74059;SDS011;62414;53.436;8.828;2022-12-17T09:33:31;113.43;;;27.08;;
74059;SDS011;62414;53.436;8.828;2022-12-17T09:35:56;103.18;;;26.70;;
74059;SDS011;62414;53.436;8.828;2022-12-17T09:38:22;104.40;;;26.83;;
74059;SDS011;62414;53.436;8.828;2022-12-17T09:40:48;103.07;;;26.50;;
74059;SDS011;62414;53.436;8.828;2022-12-17T09:43:18;112.50;;;27.48;;
74059;SDS011;62414;53.436;8.828;2022-12-17T09:45:49;103.78;;;27.20;;
74059;SDS011;62414;53.436;8.828;2022-12-17T09:48:22;101.40;;;26.67;;
74059;SDS011;62414;53.436;8.828;2022-12-17T09:50:55;99.20;;;27.30;;
74059;SDS011;62414;53.436;8.828;2022-12-17T09:53:21;101.93;;;25.38;;
74059;SDS011;62414;53.436;8.828;2022-12-17T09:55:52;98.45;;;27.05;;
74059;SDS011;62414;53.436;8.828;2022-12-17T09:58:18;90.43;;;24.37;;
74059;SDS011;62414;53.436;8.828;2022-12-17T10:00:45;96.93;;;26.63;;
74059;SDS011;62414;53.436;8.828;2022-12-17T10:03:13;92.95;;;25.55;;
74059;SDS011;62414;53.436;8.828;2022-12-17T10:05:39;90.25;;;25.70;;
74059;SDS011;62414;53.436;8.828;2022-12-17T10:08:08;85.95;;;23.83;;
74059;SDS011;62414;53.436;8.828;2022-12-17T10:10:39;85.33;;;25.13;;
74059;SDS011;62414;53.436;8.828;2022-12-17T10:13:12;85.78;;;23.77;;
74059;SDS011;62414;53.436;8.828;2022-12-17T10:15:39;339.88;;;36.33;;
74059;SDS011;62414;53.436;8.828;2022-12-17T10:18:06;130.82;;;27.17;;
74059;SDS011;62414;53.436;8.828;2022-12-17T10:20:35;102.80;;;27.08;;
74059;SDS011;62414;53.436;8.828;2022-12-17T10:23:05;93.43;;;26.83;;
74059;SDS011;62414;53.436;8.828;2022-12-17T10:25:32;102.45;;;27.73;;
74059;SDS011;62414;53.436;8.828;2022-12-17T10:27:59;92.82;;;26.98;;
74059;SDS011;62414;53.436;8.828;2022-12-17T10:30:26;107.73;;;28.37;;
74059;SDS011;62414;53.436;8.828;2022-12-17T10:32:53;115.32;;;31.00;;
74059;SDS011;62414;53.436;8.828;2022-12-17T10:35:20;110.25;;;30.42;;
74059;SDS011;62414;53.436;8.828;2022-12-17T10:37:48;115.25;;;29.30;;
74059;SDS011;62414;53.436;8.828;2022-12-17T10:40:16;105.97;;;27.17;;
74059;SDS011;62414;53.436;8.828;2022-12-17T10:42:48;101.28;;;27.83;;
74059;SDS011;62414;53.436;8.828;2022-12-17T10:45:18;112.78;;;27.40;;
74059;SDS011;62414;53.436;8.828;2022-12-17T10:47:45;95.33;;;27.63;;
74059;SDS011;62414;53.436;8.828;2022-12-17T10:50:12;102.15;;;28.33;;
74059;SDS011;62414;53.436;8.828;2022-12-17T10:52:38;98.75;;;27.23;;
74059;SDS011;62414;53.436;8.828;2022-12-17T10:55:17;96.23;;;27.27;;
74059;SDS011;62414;53.436;8.828;2022-12-17T10:57:46;92.85;;;26.20;;
74059;SDS011;62414;53.436;8.828;2022-12-17T11:00:19;95.10;;;25.90;;
74059;SDS011;62414;53.436;8.828;2022-12-17T11:02:46;184.25;;;29.42;;
74059;SDS011;62414;53.436;8.828;2022-12-17T11:05:19;104.63;;;26.80;;
74059;SDS011;62414;53.436;8.828;2022-12-17T11:07:49;96.40;;;27.27;;
74059;SDS011;62414;53.436;8.828;2022-12-17T11:10:15;100.05;;;28.38;;
74059;SDS011;62414;53.436;8.828;2022-12-17T11:12:45;115.93;;;28.47;;
74059;SDS011;62414;53.436;8.828;2022-12-17T11:15:18;110.82;;;28.40;;
74059;SDS011;62414;53.436;8.828;2022-12-17T11:17:46;95.40;;;27.75;;
74059;SDS011;62414;53.436;8.828;2022-12-17T11:20:19;108.47;;;28.60;;
74059;SDS011;62414;53.436;8.828;2022-12-17T11:22:47;106.30;;;29.52;;
74059;SDS011;62414;53.436;8.828;2022-12-17T11:25:23;106.40;;;29.67;;
74059;SDS011;62414;53.436;8.828;2022-12-17T11:27:56;98.22;;;27.67;;
74059;SDS011;62414;53.436;8.828;2022-12-17T11:30:28;107.63;;;29.67;;
74059;SDS011;62414;53.436;8.828;2022-12-17T11:32:57;103.32;;;27.42;;
74059;SDS011;62414;53.436;8.828;2022-12-17T11:35:31;91.93;;;27.30;;
74059;SDS011;62414;53.436;8.828;2022-12-17T11:38:08;93.40;;;28.23;;
74059;SDS011;62414;53.436;8.828;2022-12-17T11:40:43;91.53;;;27.52;;
74059;SDS011;62414;53.436;8.828;2022-12-17T11:43:14;97.93;;;27.98;;
74059;SDS011;62414;53.436;8.828;2022-12-17T11:45:49;91.68;;;28.08;;
74059;SDS011;62414;53.436;8.828;2022-12-17T11:48:23;99.55;;;28.33;;
74059;SDS011;62414;53.436;8.828;2022-12-17T11:50:55;95.40;;;29.10;;
74059;SDS011;62414;53.436;8.828;2022-12-17T11:53:34;94.40;;;29.13;;
74059;SDS011;62414;53.436;8.828;2022-12-17T11:56:10;100.80;;;28.90;;
74059;SDS011;62414;53.436;8.828;2022-12-17T11:58:40;205.52;;;34.75;;
74059;SDS011;62414;53.436;8.828;2022-12-17T12:01:14;93.70;;;28.80;;
74059;SDS011;62414;53.436;8.828;2022-12-17T12:03:49;88.83;;;27.33;;
74059;SDS011;62414;53.436;8.828;2022-12-17T12:06:22;92.40;;;29.27;;
74059;SDS011;62414;53.436;8.828;2022-12-17T12:08:57;95.05;;;28.65;;
74059;SDS011;62414;53.436;8.828;2022-12-17T12:11:29;107.50;;;31.45;;
74059;SDS011;62414;53.436;8.828;2022-12-17T12:14:01;108.80;;;32.00;;
74059;SDS011;62414;53.436;8.828;2022-12-17T12:16:37;109.60;;;32.83;;
74059;SDS011;62414;53.436;8.828;2022-12-17T12:19:12;105.82;;;32.45;;
74059;SDS011;62414;53.436;8.828;2022-12-17T12:21:47;110.13;;;31.35;;
74059;SDS011;62414;53.436;8.828;2022-12-17T12:24:23;105.78;;;30.67;;
74059;SDS011;62414;53.436;8.828;2022-12-17T12:27:03;108.80;;;32.15;;
74059;SDS011;62414;53.436;8.828;2022-12-17T12:29:38;105.87;;;31.87;;
74059;SDS011;62414;53.436;8.828;2022-12-17T12:32:13;103.55;;;30.45;;
74059;SDS011;62414;53.436;8.828;2022-12-17T12:34:45;108.18;;;31.05;;
74059;SDS011;62414;53.436;8.828;2022-12-17T12:37:11;101.90;;;31.27;;
74059;SDS011;62414;53.436;8.828;2022-12-17T12:39:39;101.20;;;30.55;;
74059;SDS011;62414;53.436;8.828;2022-12-17T12:42:12;104.40;;;31.33;;
74059;SDS011;62414;53.436;8.828;2022-12-17T12:44:44;101.03;;;29.42;;
74059;SDS011;62414;53.436;8.828;2022-12-17T12:47:16;101.72;;;30.85;;
74059;SDS011;62414;53.436;8.828;2022-12-17T12:49:49;104.40;;;31.07;;
74059;SDS011;62414;53.436;8.828;2022-12-17T12:52:23;100.85;;;29.77;;
74059;SDS011;62414;53.436;8.828;2022-12-17T12:54:52;103.38;;;30.40;;
74059;SDS011;62414;53.436;8.828;2022-12-17T12:57:25;96.68;;;29.67;;
74059;SDS011;62414;53.436;8.828;2022-12-17T12:59:52;91.18;;;28.63;;
74059;SDS011;62414;53.436;8.828;2022-12-17T13:02:26;89.33;;;27.53;;
74059;SDS011;62414;53.436;8.828;2022-12-17T13:04:54;90.35;;;28.58;;
74059;SDS011;62414;53.436;8.828;2022-12-17T13:07:20;98.93;;;29.03;;
74059;SDS011;62414;53.436;8.828;2022-12-17T13:09:48;95.68;;;29.00;;
74059;SDS011;62414;53.436;8.828;2022-12-17T13:12:17;88.45;;;28.73;;
74059;SDS011;62414;53.436;8.828;2022-12-17T13:14:48;92.87;;;28.13;;
74059;SDS011;62414;53.436;8.828;2022-12-17T13:17:24;102.43;;;31.00;;
74059;SDS011;62414;53.436;8.828;2022-12-17T13:19:58;94.50;;;30.20;;
74059;SDS011;62414;53.436;8.828;2022-12-17T13:22:27;95.72;;;29.27;;
74059;SDS011;62414;53.436;8.828;2022-12-17T13:24:54;92.13;;;29.13;;
74059;SDS011;62414;53.436;8.828;2022-12-17T13:27:27;95.97;;;28.03;;
74059;SDS011;62414;53.436;8.828;2022-12-17T13:29:54;97.95;;;30.38;;
74059;SDS011;62414;53.436;8.828;2022-12-17T13:32:21;90.95;;;29.33;;
74059;SDS011;62414;53.436;8.828;2022-12-17T13:34:57;99.40;;;29.52;;
74059;SDS011;62414;53.436;8.828;2022-12-17T13:37:31;85.83;;;26.50;;
74059;SDS011;62414;53.436;8.828;2022-12-17T13:40:12;80.72;;;27.20;;
74059;SDS011;62414;53.436;8.828;2022-12-17T13:42:49;84.95;;;26.00;;
74059;SDS011;62414;53.436;8.828;2022-12-17T13:45:15;631.33;;;67.93;;
74059;SDS011;62414;53.436;8.828;2022-12-17T13:47:43;110.38;;;32.13;;
74059;SDS011;62414;53.436;8.828;2022-12-17T13:50:19;95.97;;;30.52;;
74059;SDS011;62414;53.436;8.828;2022-12-17T13:52:47;101.45;;;31.55;;
74059;SDS011;62414;53.436;8.828;2022-12-17T13:55:16;98.70;;;31.47;;
74059;SDS011;62414;53.436;8.828;2022-12-17T13:57:43;101.88;;;31.35;;
74059;SDS011;62414;53.436;8.828;2022-12-17T14:00:17;109.10;;;34.25;;
74059;SDS011;62414;53.436;8.828;2022-12-17T14:02:44;97.70;;;30.43;;
74059;SDS011;62414;53.436;8.828;2022-12-17T14:05:20;94.93;;;30.75;;
74059;SDS011;62414;53.436;8.828;2022-12-17T14:07:50;101.18;;;30.25;;
74059;SDS011;62414;53.436;8.828;2022-12-17T14:10:17;99.73;;;30.50;;
74059;SDS011;62414;53.436;8.828;2022-12-17T14:12:44;103.78;;;31.75;;
74059;SDS011;62414;53.436;8.828;2022-12-17T14:15:15;107.28;;;32.13;;
74059;SDS011;62414;53.436;8.828;2022-12-17T14:17:46;107.80;;;31.70;;